sensor_id;sensor_type;location;lat;lon;timestamp;P1;durP1;ratioP1;P2;durP2;ratioP2
44722;SDS011;30451;48.638;10.624;2024-01-30T00:01:42;2.63;;;1.77;;
44722;SDS011;30451;48.638;10.624;2024-01-30T00:04:08;2.78;;;1.75;;
44722;SDS011;30451;48.638;10.624;2024-01-30T00:06:33;3.10;;;1.90;;
44722;SDS011;30451;48.638;10.624;2024-01-30T00:08:59;2.80;;;1.90;;
44722;SDS011;30451;48.638;10.624;2024-01-30T00:11:25;3.05;;;1.80;;
44722;SDS011;30451;48.638;10.624;2024-01-30T00:13:51;2.90;;;1.80;;
44722;SDS011;30451;48.638;10.624;2024-01-30T00:16:23;2.60;;;1.80;;
44722;SDS011;30451;48.638;10.624;2024-01-30T00:18:53;2.72;;;2.00;;
44722;SDS011;30451;48.638;10.624;2024-01-30T00:21:19;3.47;;;1.90;;
44722;SDS011;30451;48.638;10.624;2024-01-30T00:23:45;2.67;;;1.73;;
44722;SDS011;30451;48.638;10.624;2024-01-30T00:26:11;2.78;;;1.77;;
44722;SDS011;30451;48.638;10.624;2024-01-30T00:28:37;2.80;;;1.85;;
44722;SDS011;30451;48.638;10.624;2024-01-30T00:31:03;2.83;;;1.80;;
44722;SDS011;30451;48.638;10.624;2024-01-30T00:33:29;3.17;;;1.90;;
44722;SDS011;30451;48.638;10.624;2024-01-30T00:35:55;2.47;;;1.80;;
44722;SDS011;30451;48.638;10.624;2024-01-30T00:38:21;2.80;;;1.88;;
44722;SDS011;30451;48.638;10.624;2024-01-30T00:40:47;2.72;;;2.05;;
44722;SDS011;30451;48.638;10.624;2024-01-30T00:43:13;2.60;;;1.80;;
44722;SDS011;30451;48.638;10.624;2024-01-30T00:45:39;3.40;;;1.98;;
44722;SDS011;30451;48.638;10.624;2024-01-30T00:48:04;2.78;;;1.90;;
44722;SDS011;30451;48.638;10.624;2024-01-30T00:50:30;2.60;;;1.80;;
44722;SDS011;30451;48.638;10.624;2024-01-30T00:52:56;2.42;;;1.80;;
44722;SDS011;30451;48.638;10.624;2024-01-30T00:55:21;3.25;;;1.60;;
44722;SDS011;30451;48.638;10.624;2024-01-30T00:57:47;2.75;;;1.75;;
44722;SDS011;30451;48.638;10.624;2024-01-30T01:00:13;3.28;;;1.80;;
44722;SDS011;30451;48.638;10.624;2024-01-30T01:02:42;2.60;;;1.80;;
44722;SDS011;30451;48.638;10.624;2024-01-30T01:05:08;3.63;;;1.73;;
44722;SDS011;30451;48.638;10.624;2024-01-30T01:07:34;3.05;;;1.80;;
44722;SDS011;30451;48.638;10.624;2024-01-30T01:09:59;3.17;;;1.80;;
44722;SDS011;30451;48.638;10.624;2024-01-30T01:12:25;2.75;;;1.70;;
44722;SDS011;30451;48.638;10.624;2024-01-30T01:14:51;2.28;;;1.70;;
44722;SDS011;30451;48.638;10.624;2024-01-30T01:17:16;2.67;;;1.73;;
44722;SDS011;30451;48.638;10.624;2024-01-30T01:19:43;2.85;;;1.85;;
44722;SDS011;30451;48.638;10.624;2024-01-30T01:22:09;3.33;;;2.03;;
44722;SDS011;30451;48.638;10.624;2024-01-30T01:24:35;3.08;;;1.80;;
44722;SDS011;30451;48.638;10.624;2024-01-30T01:27:01;2.75;;;1.85;;
44722;SDS011;30451;48.638;10.624;2024-01-30T01:29:27;2.83;;;1.70;;
44722;SDS011;30451;48.638;10.624;2024-01-30T01:31:55;3.03;;;1.80;;
44722;SDS011;30451;48.638;10.624;2024-01-30T01:34:21;2.83;;;1.70;;
44722;SDS011;30451;48.638;10.624;2024-01-30T01:36:48;2.63;;;1.80;;
44722;SDS011;30451;48.638;10.624;2024-01-30T01:39:14;3.47;;;1.90;;
44722;SDS011;30451;48.638;10.624;2024-01-30T01:41:40;2.75;;;1.88;;
44722;SDS011;30451;48.638;10.624;2024-01-30T01:44:07;2.45;;;1.70;;
44722;SDS011;30451;48.638;10.624;2024-01-30T01:46:33;2.92;;;1.73;;
44722;SDS011;30451;48.638;10.624;2024-01-30T01:49:00;2.42;;;1.60;;
44722;SDS011;30451;48.638;10.624;2024-01-30T01:51:30;2.22;;;1.67;;
44722;SDS011;30451;48.638;10.624;2024-01-30T01:53:58;1.98;;;1.40;;
44722;SDS011;30451;48.638;10.624;2024-01-30T01:56:26;2.47;;;1.73;;
44722;SDS011;30451;48.638;10.624;2024-01-30T01:58:54;2.97;;;1.95;;
44722;SDS011;30451;48.638;10.624;2024-01-30T02:01:20;2.60;;;1.88;;
44722;SDS011;30451;48.638;10.624;2024-01-30T02:03:46;3.15;;;1.70;;
44722;SDS011;30451;48.638;10.624;2024-01-30T02:06:15;2.25;;;1.50;;
44722;SDS011;30451;48.638;10.624;2024-01-30T02:11:07;2.30;;;1.70;;
44722;SDS011;30451;48.638;10.624;2024-01-30T02:13:35;2.47;;;1.88;;
44722;SDS011;30451;48.638;10.624;2024-01-30T02:16:01;2.47;;;1.70;;
44722;SDS011;30451;48.638;10.624;2024-01-30T02:18:26;2.80;;;1.88;;
44722;SDS011;30451;48.638;10.624;2024-01-30T02:20:53;2.50;;;1.80;;
44722;SDS011;30451;48.638;10.624;2024-01-30T02:23:21;2.78;;;1.67;;
44722;SDS011;30451;48.638;10.624;2024-01-30T02:25:52;2.75;;;1.70;;
44722;SDS011;30451;48.638;10.624;2024-01-30T02:28:18;2.65;;;1.70;;
44722;SDS011;30451;48.638;10.624;2024-01-30T02:30:45;2.78;;;1.90;;
44722;SDS011;30451;48.638;10.624;2024-01-30T02:33:14;3.25;;;1.80;;
44722;SDS011;30451;48.638;10.624;2024-01-30T02:35:40;2.75;;;1.70;;
44722;SDS011;30451;48.638;10.624;2024-01-30T02:38:06;2.60;;;1.70;;
44722;SDS011;30451;48.638;10.624;2024-01-30T02:40:31;2.95;;;1.80;;
44722;SDS011;30451;48.638;10.624;2024-01-30T02:43:00;2.60;;;1.80;;
44722;SDS011;30451;48.638;10.624;2024-01-30T02:45:27;2.50;;;1.73;;
44722;SDS011;30451;48.638;10.624;2024-01-30T02:47:53;2.83;;;1.70;;
44722;SDS011;30451;48.638;10.624;2024-01-30T02:50:18;2.72;;;1.70;;
44722;SDS011;30451;48.638;10.624;2024-01-30T02:52:44;2.38;;;1.70;;
44722;SDS011;30451;48.638;10.624;2024-01-30T02:55:10;2.25;;;1.65;;
44722;SDS011;30451;48.638;10.624;2024-01-30T02:57:36;2.67;;;1.70;;
44722;SDS011;30451;48.638;10.624;2024-01-30T03:00:03;2.58;;;1.65;;
44722;SDS011;30451;48.638;10.624;2024-01-30T03:02:30;2.70;;;1.80;;
44722;SDS011;30451;48.638;10.624;2024-01-30T03:04:57;2.30;;;1.60;;
44722;SDS011;30451;48.638;10.624;2024-01-30T03:07:22;3.13;;;1.92;;
44722;SDS011;30451;48.638;10.624;2024-01-30T03:09:48;2.85;;;1.70;;
44722;SDS011;30451;48.638;10.624;2024-01-30T03:12:14;2.17;;;1.63;;
44722;SDS011;30451;48.638;10.624;2024-01-30T03:14:40;2.22;;;1.65;;
44722;SDS011;30451;48.638;10.624;2024-01-30T03:17:05;2.13;;;1.50;;
44722;SDS011;30451;48.638;10.624;2024-01-30T03:19:31;2.15;;;1.60;;
44722;SDS011;30451;48.638;10.624;2024-01-30T03:21:56;2.63;;;1.90;;
44722;SDS011;30451;48.638;10.624;2024-01-30T03:24:22;2.38;;;1.60;;
44722;SDS011;30451;48.638;10.624;2024-01-30T03:26:48;2.78;;;1.73;;
44722;SDS011;30451;48.638;10.624;2024-01-30T03:29:13;2.40;;;1.70;;
44722;SDS011;30451;48.638;10.624;2024-01-30T03:31:39;2.78;;;1.63;;
44722;SDS011;30451;48.638;10.624;2024-01-30T03:34:05;2.20;;;1.60;;
44722;SDS011;30451;48.638;10.624;2024-01-30T03:36:30;2.58;;;1.60;;
44722;SDS011;30451;48.638;10.624;2024-01-30T03:38:58;2.42;;;1.65;;
44722;SDS011;30451;48.638;10.624;2024-01-30T03:41:23;2.55;;;1.70;;
44722;SDS011;30451;48.638;10.624;2024-01-30T03:43:50;2.30;;;1.60;;
44722;SDS011;30451;48.638;10.624;2024-01-30T03:46:15;2.40;;;1.90;;
44722;SDS011;30451;48.638;10.624;2024-01-30T03:48:41;2.50;;;1.80;;
44722;SDS011;30451;48.638;10.624;2024-01-30T03:51:07;2.42;;;1.70;;
44722;SDS011;30451;48.638;10.624;2024-01-30T03:53:33;2.50;;;1.80;;
44722;SDS011;30451;48.638;10.624;2024-01-30T03:55:58;2.22;;;1.63;;
44722;SDS011;30451;48.638;10.624;2024-01-30T03:58:24;2.15;;;1.50;;
44722;SDS011;30451;48.638;10.624;2024-01-30T04:00:50;2.17;;;1.58;;
44722;SDS011;30451;48.638;10.624;2024-01-30T04:03:16;2.70;;;1.70;;
44722;SDS011;30451;48.638;10.624;2024-01-30T04:05:41;2.17;;;1.58;;
44722;SDS011;30451;48.638;10.624;2024-01-30T04:08:07;2.65;;;1.90;;
44722;SDS011;30451;48.638;10.624;2024-01-30T04:10:33;2.50;;;1.70;;
44722;SDS011;30451;48.638;10.624;2024-01-30T04:12:59;2.50;;;1.80;;
44722;SDS011;30451;48.638;10.624;2024-01-30T04:15:25;2.15;;;1.65;;
44722;SDS011;30451;48.638;10.624;2024-01-30T04:17:51;2.50;;;1.70;;
44722;SDS011;30451;48.638;10.624;2024-01-30T04:20:17;2.47;;;1.60;;
44722;SDS011;30451;48.638;10.624;2024-01-30T04:22:45;2.50;;;1.65;;
44722;SDS011;30451;48.638;10.624;2024-01-30T04:25:12;2.33;;;1.70;;
44722;SDS011;30451;48.638;10.624;2024-01-30T04:27:38;2.30;;;1.60;;
44722;SDS011;30451;48.638;10.624;2024-01-30T04:30:04;1.92;;;1.63;;
44722;SDS011;30451;48.638;10.624;2024-01-30T04:32:31;2.22;;;1.50;;
44722;SDS011;30451;48.638;10.624;2024-01-30T04:34:57;2.67;;;1.70;;
44722;SDS011;30451;48.638;10.624;2024-01-30T04:37:23;2.42;;;1.58;;
44722;SDS011;30451;48.638;10.624;2024-01-30T04:39:49;2.20;;;1.60;;
44722;SDS011;30451;48.638;10.624;2024-01-30T04:42:16;2.40;;;1.63;;
44722;SDS011;30451;48.638;10.624;2024-01-30T04:44:42;2.33;;;1.50;;
44722;SDS011;30451;48.638;10.624;2024-01-30T04:47:07;2.10;;;1.50;;
44722;SDS011;30451;48.638;10.624;2024-01-30T04:49:34;2.60;;;1.70;;
44722;SDS011;30451;48.638;10.624;2024-01-30T04:52:00;2.70;;;1.50;;
44722;SDS011;30451;48.638;10.624;2024-01-30T04:54:25;2.38;;;1.70;;
44722;SDS011;30451;48.638;10.624;2024-01-30T04:56:51;2.38;;;1.52;;
44722;SDS011;30451;48.638;10.624;2024-01-30T04:59:17;2.40;;;1.70;;
44722;SDS011;30451;48.638;10.624;2024-01-30T05:01:43;1.98;;;1.50;;
44722;SDS011;30451;48.638;10.624;2024-01-30T05:04:08;2.00;;;1.40;;
44722;SDS011;30451;48.638;10.624;2024-01-30T05:06:34;2.30;;;1.45;;
44722;SDS011;30451;48.638;10.624;2024-01-30T05:09:00;2.20;;;1.58;;
44722;SDS011;30451;48.638;10.624;2024-01-30T05:11:26;2.30;;;1.63;;
44722;SDS011;30451;48.638;10.624;2024-01-30T05:13:51;2.15;;;1.50;;
44722;SDS011;30451;48.638;10.624;2024-01-30T05:16:17;2.47;;;1.52;;
44722;SDS011;30451;48.638;10.624;2024-01-30T05:18:43;2.15;;;1.50;;
44722;SDS011;30451;48.638;10.624;2024-01-30T05:21:08;2.50;;;1.80;;
44722;SDS011;30451;48.638;10.624;2024-01-30T05:23:35;2.00;;;1.50;;
44722;SDS011;30451;48.638;10.624;2024-01-30T05:26:01;2.30;;;1.58;;
44722;SDS011;30451;48.638;10.624;2024-01-30T05:28:28;2.17;;;1.48;;
44722;SDS011;30451;48.638;10.624;2024-01-30T05:30:55;2.05;;;1.45;;
44722;SDS011;30451;48.638;10.624;2024-01-30T05:33:21;2.42;;;1.60;;
44722;SDS011;30451;48.638;10.624;2024-01-30T05:35:46;2.38;;;1.50;;
44722;SDS011;30451;48.638;10.624;2024-01-30T05:38:13;3.03;;;1.70;;
44722;SDS011;30451;48.638;10.624;2024-01-30T05:40:40;2.00;;;1.50;;
44722;SDS011;30451;48.638;10.624;2024-01-30T05:43:05;2.10;;;1.50;;
44722;SDS011;30451;48.638;10.624;2024-01-30T05:45:32;2.20;;;1.52;;
44722;SDS011;30451;48.638;10.624;2024-01-30T05:47:59;2.33;;;1.63;;
44722;SDS011;30451;48.638;10.624;2024-01-30T05:50:24;1.80;;;1.40;;
44722;SDS011;30451;48.638;10.624;2024-01-30T05:52:51;1.92;;;1.40;;
44722;SDS011;30451;48.638;10.624;2024-01-30T05:55:17;2.33;;;1.50;;
44722;SDS011;30451;48.638;10.624;2024-01-30T05:57:42;2.47;;;1.50;;
44722;SDS011;30451;48.638;10.624;2024-01-30T06:00:08;2.15;;;1.50;;
44722;SDS011;30451;48.638;10.624;2024-01-30T06:02:33;2.03;;;1.60;;
44722;SDS011;30451;48.638;10.624;2024-01-30T06:04:59;3.22;;;1.80;;
44722;SDS011;30451;48.638;10.624;2024-01-30T06:07:25;2.30;;;1.60;;
44722;SDS011;30451;48.638;10.624;2024-01-30T06:09:50;2.60;;;1.65;;
44722;SDS011;30451;48.638;10.624;2024-01-30T06:12:16;2.88;;;1.58;;
44722;SDS011;30451;48.638;10.624;2024-01-30T06:14:42;2.97;;;1.70;;
44722;SDS011;30451;48.638;10.624;2024-01-30T06:17:08;2.30;;;1.55;;
44722;SDS011;30451;48.638;10.624;2024-01-30T06:19:33;2.50;;;1.60;;
44722;SDS011;30451;48.638;10.624;2024-01-30T06:21:59;2.17;;;1.55;;
44722;SDS011;30451;48.638;10.624;2024-01-30T06:24:25;2.33;;;1.55;;
44722;SDS011;30451;48.638;10.624;2024-01-30T06:26:51;1.98;;;1.52;;
44722;SDS011;30451;48.638;10.624;2024-01-30T06:29:16;2.15;;;1.45;;
44722;SDS011;30451;48.638;10.624;2024-01-30T06:31:42;2.10;;;1.48;;
44722;SDS011;30451;48.638;10.624;2024-01-30T06:34:08;2.10;;;1.50;;
44722;SDS011;30451;48.638;10.624;2024-01-30T06:36:35;2.28;;;1.60;;
44722;SDS011;30451;48.638;10.624;2024-01-30T06:39:01;2.97;;;1.50;;
44722;SDS011;30451;48.638;10.624;2024-01-30T06:41:27;3.13;;;1.70;;
44722;SDS011;30451;48.638;10.624;2024-01-30T06:43:53;2.30;;;1.50;;
44722;SDS011;30451;48.638;10.624;2024-01-30T06:46:18;2.13;;;1.40;;
44722;SDS011;30451;48.638;10.624;2024-01-30T06:48:44;2.42;;;1.73;;
44722;SDS011;30451;48.638;10.624;2024-01-30T06:51:10;2.08;;;1.30;;
44722;SDS011;30451;48.638;10.624;2024-01-30T06:53:37;1.85;;;1.40;;
44722;SDS011;30451;48.638;10.624;2024-01-30T06:56:03;2.10;;;1.25;;
44722;SDS011;30451;48.638;10.624;2024-01-30T06:58:28;2.38;;;1.40;;
44722;SDS011;30451;48.638;10.624;2024-01-30T07:00:54;2.85;;;1.58;;
44722;SDS011;30451;48.638;10.624;2024-01-30T07:03:20;3.40;;;1.80;;
44722;SDS011;30451;48.638;10.624;2024-01-30T07:05:46;2.15;;;1.33;;
44722;SDS011;30451;48.638;10.624;2024-01-30T07:08:12;3.30;;;1.60;;
44722;SDS011;30451;48.638;10.624;2024-01-30T07:10:38;2.53;;;1.60;;
44722;SDS011;30451;48.638;10.624;2024-01-30T07:13:03;3.83;;;2.00;;
44722;SDS011;30451;48.638;10.624;2024-01-30T07:15:30;2.70;;;1.70;;
44722;SDS011;30451;48.638;10.624;2024-01-30T07:17:56;3.03;;;1.63;;
44722;SDS011;30451;48.638;10.624;2024-01-30T07:20:22;3.17;;;1.70;;
44722;SDS011;30451;48.638;10.624;2024-01-30T07:22:47;3.00;;;1.80;;
44722;SDS011;30451;48.638;10.624;2024-01-30T07:25:13;2.70;;;1.77;;
44722;SDS011;30451;48.638;10.624;2024-01-30T07:27:39;2.90;;;1.65;;
44722;SDS011;30451;48.638;10.624;2024-01-30T07:30:04;4.05;;;2.13;;
44722;SDS011;30451;48.638;10.624;2024-01-30T07:32:31;3.47;;;2.10;;
44722;SDS011;30451;48.638;10.624;2024-01-30T07:34:57;3.60;;;2.15;;
44722;SDS011;30451;48.638;10.624;2024-01-30T07:37:22;3.50;;;1.88;;
44722;SDS011;30451;48.638;10.624;2024-01-30T07:39:48;3.78;;;1.90;;
44722;SDS011;30451;48.638;10.624;2024-01-30T07:42:13;4.28;;;2.05;;
44722;SDS011;30451;48.638;10.624;2024-01-30T07:44:39;3.95;;;2.42;;
44722;SDS011;30451;48.638;10.624;2024-01-30T07:47:05;4.57;;;2.20;;
44722;SDS011;30451;48.638;10.624;2024-01-30T07:49:31;4.68;;;2.00;;
44722;SDS011;30451;48.638;10.624;2024-01-30T07:51:56;4.05;;;2.08;;
44722;SDS011;30451;48.638;10.624;2024-01-30T07:54:22;4.13;;;1.90;;
44722;SDS011;30451;48.638;10.624;2024-01-30T07:56:48;3.60;;;2.10;;
44722;SDS011;30451;48.638;10.624;2024-01-30T07:59:14;3.97;;;2.22;;
44722;SDS011;30451;48.638;10.624;2024-01-30T08:01:40;4.45;;;2.50;;
44722;SDS011;30451;48.638;10.624;2024-01-30T08:04:06;3.50;;;2.10;;
44722;SDS011;30451;48.638;10.624;2024-01-30T08:06:32;4.65;;;2.05;;
44722;SDS011;30451;48.638;10.624;2024-01-30T08:08:58;3.90;;;2.20;;
44722;SDS011;30451;48.638;10.624;2024-01-30T08:11:24;4.57;;;2.30;;
44722;SDS011;30451;48.638;10.624;2024-01-30T08:13:54;4.68;;;2.30;;
44722;SDS011;30451;48.638;10.624;2024-01-30T08:16:20;4.78;;;2.45;;
44722;SDS011;30451;48.638;10.624;2024-01-30T08:18:45;4.03;;;2.15;;
44722;SDS011;30451;48.638;10.624;2024-01-30T08:21:11;4.25;;;2.60;;
44722;SDS011;30451;48.638;10.624;2024-01-30T08:23:38;4.32;;;2.20;;
44722;SDS011;30451;48.638;10.624;2024-01-30T08:26:04;4.35;;;2.50;;
44722;SDS011;30451;48.638;10.624;2024-01-30T08:28:30;5.00;;;2.60;;
44722;SDS011;30451;48.638;10.624;2024-01-30T08:30:56;3.95;;;2.17;;
44722;SDS011;30451;48.638;10.624;2024-01-30T08:33:22;3.58;;;2.22;;
44722;SDS011;30451;48.638;10.624;2024-01-30T08:35:48;5.13;;;2.50;;
44722;SDS011;30451;48.638;10.624;2024-01-30T08:38:14;3.88;;;2.30;;
44722;SDS011;30451;48.638;10.624;2024-01-30T08:40:39;4.75;;;2.60;;
44722;SDS011;30451;48.638;10.624;2024-01-30T08:43:05;4.97;;;2.20;;
44722;SDS011;30451;48.638;10.624;2024-01-30T08:45:30;4.15;;;2.47;;
44722;SDS011;30451;48.638;10.624;2024-01-30T08:47:56;3.85;;;2.40;;
44722;SDS011;30451;48.638;10.624;2024-01-30T08:50:22;3.80;;;2.70;;
44722;SDS011;30451;48.638;10.624;2024-01-30T08:52:47;4.05;;;2.80;;
44722;SDS011;30451;48.638;10.624;2024-01-30T08:55:13;5.05;;;2.63;;
44722;SDS011;30451;48.638;10.624;2024-01-30T08:57:39;5.00;;;2.65;;
44722;SDS011;30451;48.638;10.624;2024-01-30T09:00:05;3.70;;;2.30;;
44722;SDS011;30451;48.638;10.624;2024-01-30T09:02:32;3.85;;;2.35;;
44722;SDS011;30451;48.638;10.624;2024-01-30T09:04:58;5.55;;;3.03;;
44722;SDS011;30451;48.638;10.624;2024-01-30T09:07:23;6.00;;;2.50;;
44722;SDS011;30451;48.638;10.624;2024-01-30T09:09:49;4.32;;;2.70;;
44722;SDS011;30451;48.638;10.624;2024-01-30T09:12:15;3.83;;;2.75;;
44722;SDS011;30451;48.638;10.624;2024-01-30T09:14:40;4.25;;;2.42;;
44722;SDS011;30451;48.638;10.624;2024-01-30T09:17:07;6.05;;;2.65;;
44722;SDS011;30451;48.638;10.624;2024-01-30T09:19:33;3.75;;;2.70;;
44722;SDS011;30451;48.638;10.624;2024-01-30T09:21:59;4.47;;;2.75;;
44722;SDS011;30451;48.638;10.624;2024-01-30T09:24:25;4.82;;;2.90;;
44722;SDS011;30451;48.638;10.624;2024-01-30T09:26:51;4.00;;;2.67;;
44722;SDS011;30451;48.638;10.624;2024-01-30T09:29:17;5.53;;;2.90;;
44722;SDS011;30451;48.638;10.624;2024-01-30T09:31:46;4.57;;;2.95;;
44722;SDS011;30451;48.638;10.624;2024-01-30T09:34:12;4.85;;;3.00;;
44722;SDS011;30451;48.638;10.624;2024-01-30T09:36:38;4.15;;;2.70;;
44722;SDS011;30451;48.638;10.624;2024-01-30T09:39:04;3.97;;;2.40;;
44722;SDS011;30451;48.638;10.624;2024-01-30T09:41:32;3.80;;;2.33;;
44722;SDS011;30451;48.638;10.624;2024-01-30T09:44:01;4.63;;;2.50;;
44722;SDS011;30451;48.638;10.624;2024-01-30T09:46:27;4.38;;;2.83;;
44722;SDS011;30451;48.638;10.624;2024-01-30T09:48:56;4.03;;;2.45;;
44722;SDS011;30451;48.638;10.624;2024-01-30T09:51:23;3.83;;;2.50;;
44722;SDS011;30451;48.638;10.624;2024-01-30T09:53:50;4.15;;;2.78;;
44722;SDS011;30451;48.638;10.624;2024-01-30T09:56:15;3.67;;;2.50;;
44722;SDS011;30451;48.638;10.624;2024-01-30T09:58:41;4.70;;;3.00;;
44722;SDS011;30451;48.638;10.624;2024-01-30T10:01:07;3.92;;;2.53;;
44722;SDS011;30451;48.638;10.624;2024-01-30T10:03:33;4.85;;;2.72;;
44722;SDS011;30451;48.638;10.624;2024-01-30T10:05:59;4.22;;;2.67;;
44722;SDS011;30451;48.638;10.624;2024-01-30T10:08:26;3.70;;;2.40;;
44722;SDS011;30451;48.638;10.624;2024-01-30T10:10:51;4.68;;;2.60;;
44722;SDS011;30451;48.638;10.624;2024-01-30T10:13:17;3.90;;;2.58;;
44722;SDS011;30451;48.638;10.624;2024-01-30T10:15:43;3.97;;;2.50;;
44722;SDS011;30451;48.638;10.624;2024-01-30T10:18:10;3.53;;;2.70;;
44722;SDS011;30451;48.638;10.624;2024-01-30T10:20:36;4.47;;;2.40;;
44722;SDS011;30451;48.638;10.624;2024-01-30T10:23:02;3.33;;;2.40;;
44722;SDS011;30451;48.638;10.624;2024-01-30T10:25:28;3.53;;;2.42;;
44722;SDS011;30451;48.638;10.624;2024-01-30T10:27:56;4.35;;;2.60;;
44722;SDS011;30451;48.638;10.624;2024-01-30T10:30:22;3.75;;;2.47;;
44722;SDS011;30451;48.638;10.624;2024-01-30T10:32:48;4.13;;;2.50;;
44722;SDS011;30451;48.638;10.624;2024-01-30T10:35:14;3.80;;;2.55;;
44722;SDS011;30451;48.638;10.624;2024-01-30T10:37:41;3.67;;;2.63;;
44722;SDS011;30451;48.638;10.624;2024-01-30T10:40:12;4.53;;;2.70;;
44722;SDS011;30451;48.638;10.624;2024-01-30T10:42:41;3.45;;;2.50;;
44722;SDS011;30451;48.638;10.624;2024-01-30T10:45:08;3.70;;;2.60;;
44722;SDS011;30451;48.638;10.624;2024-01-30T10:47:37;4.55;;;2.65;;
44722;SDS011;30451;48.638;10.624;2024-01-30T10:50:05;3.30;;;2.42;;
44722;SDS011;30451;48.638;10.624;2024-01-30T10:52:33;3.65;;;2.40;;
44722;SDS011;30451;48.638;10.624;2024-01-30T10:54:59;3.50;;;2.60;;
44722;SDS011;30451;48.638;10.624;2024-01-30T10:57:26;3.78;;;2.53;;
44722;SDS011;30451;48.638;10.624;2024-01-30T11:00:01;3.92;;;2.40;;
44722;SDS011;30451;48.638;10.624;2024-01-30T11:02:35;3.33;;;2.50;;
44722;SDS011;30451;48.638;10.624;2024-01-30T11:05:06;3.40;;;2.50;;
44722;SDS011;30451;48.638;10.624;2024-01-30T11:07:31;5.13;;;2.88;;
44722;SDS011;30451;48.638;10.624;2024-01-30T11:12:25;4.97;;;2.50;;
44722;SDS011;30451;48.638;10.624;2024-01-30T11:17:44;3.65;;;2.53;;
44722;SDS011;30451;48.638;10.624;2024-01-30T11:22:52;4.53;;;2.88;;
44722;SDS011;30451;48.638;10.624;2024-01-30T11:25:21;3.30;;;2.50;;
44722;SDS011;30451;48.638;10.624;2024-01-30T11:27:49;3.72;;;2.55;;
44722;SDS011;30451;48.638;10.624;2024-01-30T11:33:06;3.33;;;2.53;;
44722;SDS011;30451;48.638;10.624;2024-01-30T11:35:34;3.40;;;2.40;;
44722;SDS011;30451;48.638;10.624;2024-01-30T11:38:02;3.45;;;2.40;;
44722;SDS011;30451;48.638;10.624;2024-01-30T11:40:29;3.38;;;2.60;;
44722;SDS011;30451;48.638;10.624;2024-01-30T11:42:56;3.92;;;2.70;;
44722;SDS011;30451;48.638;10.624;2024-01-30T11:45:28;3.58;;;2.63;;
44722;SDS011;30451;48.638;10.624;2024-01-30T11:47:54;3.67;;;2.70;;
44722;SDS011;30451;48.638;10.624;2024-01-30T11:50:20;3.42;;;2.45;;
44722;SDS011;30451;48.638;10.624;2024-01-30T11:52:46;3.55;;;2.45;;
44722;SDS011;30451;48.638;10.624;2024-01-30T11:55:13;3.60;;;2.60;;
44722;SDS011;30451;48.638;10.624;2024-01-30T11:57:39;4.07;;;2.75;;
44722;SDS011;30451;48.638;10.624;2024-01-30T12:00:05;3.30;;;2.25;;
44722;SDS011;30451;48.638;10.624;2024-01-30T12:02:39;3.28;;;2.40;;
44722;SDS011;30451;48.638;10.624;2024-01-30T12:05:05;3.90;;;2.65;;
44722;SDS011;30451;48.638;10.624;2024-01-30T12:07:32;4.18;;;2.50;;
44722;SDS011;30451;48.638;10.624;2024-01-30T12:09:58;3.20;;;2.20;;
44722;SDS011;30451;48.638;10.624;2024-01-30T12:12:28;3.80;;;2.55;;
44722;SDS011;30451;48.638;10.624;2024-01-30T12:14:54;3.60;;;2.60;;
44722;SDS011;30451;48.638;10.624;2024-01-30T12:17:25;3.22;;;2.40;;
44722;SDS011;30451;48.638;10.624;2024-01-30T12:22:37;4.20;;;2.80;;
44722;SDS011;30451;48.638;10.624;2024-01-30T12:25:08;3.40;;;2.40;;
44722;SDS011;30451;48.638;10.624;2024-01-30T12:27:38;3.88;;;2.22;;
44722;SDS011;30451;48.638;10.624;2024-01-30T12:30:07;4.07;;;2.60;;
44722;SDS011;30451;48.638;10.624;2024-01-30T12:32:41;2.90;;;2.20;;
44722;SDS011;30451;48.638;10.624;2024-01-30T12:35:11;3.17;;;2.40;;
44722;SDS011;30451;48.638;10.624;2024-01-30T12:37:46;3.05;;;2.45;;
44722;SDS011;30451;48.638;10.624;2024-01-30T12:40:16;3.47;;;2.65;;
44722;SDS011;30451;48.638;10.624;2024-01-30T12:42:42;4.32;;;2.75;;
44722;SDS011;30451;48.638;10.624;2024-01-30T12:45:11;3.40;;;2.50;;
44722;SDS011;30451;48.638;10.624;2024-01-30T12:47:36;3.55;;;2.28;;
44722;SDS011;30451;48.638;10.624;2024-01-30T12:50:02;3.20;;;2.40;;
44722;SDS011;30451;48.638;10.624;2024-01-30T12:52:28;3.97;;;2.55;;
44722;SDS011;30451;48.638;10.624;2024-01-30T12:54:54;3.60;;;2.60;;
44722;SDS011;30451;48.638;10.624;2024-01-30T12:57:20;3.35;;;2.42;;
44722;SDS011;30451;48.638;10.624;2024-01-30T12:59:46;3.25;;;2.70;;
44722;SDS011;30451;48.638;10.624;2024-01-30T13:02:12;3.70;;;2.60;;
44722;SDS011;30451;48.638;10.624;2024-01-30T13:04:38;3.78;;;2.72;;
44722;SDS011;30451;48.638;10.624;2024-01-30T13:07:04;3.30;;;2.40;;
44722;SDS011;30451;48.638;10.624;2024-01-30T13:09:30;3.25;;;2.30;;
44722;SDS011;30451;48.638;10.624;2024-01-30T13:11:56;3.72;;;2.88;;
44722;SDS011;30451;48.638;10.624;2024-01-30T13:14:23;4.15;;;2.70;;
44722;SDS011;30451;48.638;10.624;2024-01-30T13:16:49;3.80;;;2.60;;
44722;SDS011;30451;48.638;10.624;2024-01-30T13:19:14;3.70;;;2.58;;
44722;SDS011;30451;48.638;10.624;2024-01-30T13:21:41;3.55;;;2.63;;
44722;SDS011;30451;48.638;10.624;2024-01-30T13:24:06;3.90;;;2.63;;
44722;SDS011;30451;48.638;10.624;2024-01-30T13:26:32;3.35;;;2.70;;
44722;SDS011;30451;48.638;10.624;2024-01-30T13:28:58;3.45;;;2.75;;
44722;SDS011;30451;48.638;10.624;2024-01-30T13:31:24;3.40;;;2.72;;
44722;SDS011;30451;48.638;10.624;2024-01-30T13:33:50;3.40;;;2.60;;
44722;SDS011;30451;48.638;10.624;2024-01-30T13:36:15;4.10;;;2.53;;
44722;SDS011;30451;48.638;10.624;2024-01-30T13:38:41;4.13;;;2.95;;
44722;SDS011;30451;48.638;10.624;2024-01-30T13:41:07;4.68;;;2.83;;
44722;SDS011;30451;48.638;10.624;2024-01-30T13:43:33;4.60;;;2.92;;
44722;SDS011;30451;48.638;10.624;2024-01-30T13:45:58;4.65;;;3.05;;
44722;SDS011;30451;48.638;10.624;2024-01-30T13:48:24;3.30;;;2.60;;
44722;SDS011;30451;48.638;10.624;2024-01-30T13:50:50;4.45;;;2.80;;
44722;SDS011;30451;48.638;10.624;2024-01-30T13:53:15;4.93;;;3.40;;
44722;SDS011;30451;48.638;10.624;2024-01-30T13:55:41;4.88;;;3.05;;
44722;SDS011;30451;48.638;10.624;2024-01-30T13:58:07;4.07;;;2.50;;
44722;SDS011;30451;48.638;10.624;2024-01-30T14:00:33;4.70;;;3.00;;
44722;SDS011;30451;48.638;10.624;2024-01-30T14:02:59;5.45;;;3.35;;
44722;SDS011;30451;48.638;10.624;2024-01-30T14:05:25;5.22;;;3.17;;
44722;SDS011;30451;48.638;10.624;2024-01-30T14:07:54;5.10;;;2.90;;
44722;SDS011;30451;48.638;10.624;2024-01-30T14:10:20;6.00;;;3.17;;
44722;SDS011;30451;48.638;10.624;2024-01-30T14:12:46;4.78;;;3.08;;
44722;SDS011;30451;48.638;10.624;2024-01-30T14:15:13;4.45;;;2.75;;
44722;SDS011;30451;48.638;10.624;2024-01-30T14:17:46;4.20;;;2.72;;
44722;SDS011;30451;48.638;10.624;2024-01-30T14:20:13;6.32;;;3.08;;
44722;SDS011;30451;48.638;10.624;2024-01-30T14:22:39;5.13;;;2.90;;
44722;SDS011;30451;48.638;10.624;2024-01-30T14:25:05;4.40;;;2.97;;
44722;SDS011;30451;48.638;10.624;2024-01-30T14:27:31;4.60;;;2.90;;
44722;SDS011;30451;48.638;10.624;2024-01-30T14:29:57;5.40;;;3.00;;
44722;SDS011;30451;48.638;10.624;2024-01-30T14:32:23;4.75;;;2.88;;
44722;SDS011;30451;48.638;10.624;2024-01-30T14:34:50;5.00;;;2.83;;
44722;SDS011;30451;48.638;10.624;2024-01-30T14:37:17;5.95;;;2.80;;
44722;SDS011;30451;48.638;10.624;2024-01-30T14:39:43;4.32;;;2.70;;
44722;SDS011;30451;48.638;10.624;2024-01-30T14:42:09;5.05;;;2.85;;
44722;SDS011;30451;48.638;10.624;2024-01-30T14:44:35;4.43;;;2.85;;